Time;durP1;ratioP1;P1;durP2;ratioP2;P2;SDS_P1;SDS_P2;PMS_P1;PMS_P2;Temp;Humidity;BMP_temperature;BMP_pressure;BME280_temperature;BME280_humidity;BME280_pressure;Samples;Min_cycle;Max_cycle;Signal;HPM_P1;HPM_P2
2023/10/09 00:02:18;;;;;;;15.85;9.48;;;;;;;;;;10333413;28;20496;-59
2023/10/09 00:07:20;;;;;;;10.95;8.77;;;;;;;;;;10332810;28;20041;-61
2023/10/09 00:12:25;;;;;;;13.63;8.63;;;;;;;;;;10332614;28;20051;-59
2023/10/09 00:17:31;;;;;;;16.52;9.40;;;;;;;;;;10332974;28;20030;-59
2023/10/09 00:22:37;;;;;;;18.38;9.07;;;;;;;;;;10332195;28;20311;-60
2023/10/09 00:27:42;;;;;;;14.63;8.95;;;;;;;;;;10332542;28;20030;-59
2023/10/09 00:32:50;;;;;;;13.88;9.43;;;;;;;;;;10332080;28;20069;-59
2023/10/09 00:37:54;;;;;;;17.83;9.95;;;;;;;;;;10332200;28;20058;-60
2023/10/09 00:42:55;;;;;;;18.65;9.35;;;;;;;;;;10331045;28;20382;-58
2023/10/09 00:47:58;;;;;;;16.63;9.38;;;;;;;;;;10331824;28;20030;-60
2023/10/09 00:53:03;;;;;;;13.48;9.40;;;;;;;;;;10330609;28;20069;-59
2023/10/09 00:58:10;;;;;;;18.23;9.00;;;;;;;;;;10331463;28;20109;-59
2023/10/09 01:18:49;;;;;;;16.10;9.88;;;;;;;;;;10330836;28;20210;-60
2023/10/09 01:24:08;;;;;;;19.40;9.80;;;;;;;;;;10330332;28;20041;-61
2023/10/09 01:29:30;;;;;;;13.65;9.32;;;;;;;;;;10329692;28;20463;-59
2023/10/09 01:34:45;;;;;;;17.33;9.68;;;;;;;;;;10328647;28;20245;-59
2023/10/09 01:39:47;;;;;;;21.50;10.50;;;;;;;;;;10329031;28;20039;-61
2023/10/09 01:44:48;;;;;;;13.70;9.77;;;;;;;;;;10329513;28;20033;-59
2023/10/09 01:49:49;;;;;;;16.73;10.07;;;;;;;;;;10328774;28;20034;-61
2023/10/09 01:54:51;;;;;;;19.48;10.10;;;;;;;;;;10328881;28;20045;-61
2023/10/09 01:59:55;;;;;;;16.17;10.00;;;;;;;;;;10328565;28;20537;-62
2023/10/09 02:26:05;;;;;;;19.33;9.82;;;;;;;;;;10327939;28;20030;-62
2023/10/09 02:31:11;;;;;;;19.38;10.25;;;;;;;;;;10327394;28;20398;-62
2023/10/09 02:36:12;;;;;;;14.20;9.60;;;;;;;;;;10327459;28;20519;-62
2023/10/09 02:46:18;;;;;;;17.58;10.63;;;;;;;;;;10327796;28;20030;-61
2023/10/09 02:56:37;;;;;;;;;;;;;;;;;;10327889;28;20030;-62
2023/10/09 03:01:40;;;;;;;17.15;11.13;;;;;;;;;;10327996;28;19968;-61
2023/10/09 03:06:50;;;;;;;14.15;10.50;;;;;;;;;;10335204;28;20045;-60
2023/10/09 03:11:53;;;;;;;19.20;9.82;;;;;;;;;;10335560;28;20077;-62
2023/10/09 03:16:54;;;;;;;16.60;10.70;;;;;;;;;;10335172;28;20121;-62
2023/10/09 03:21:57;;;;;;;17.35;11.35;;;;;;;;;;10334383;28;20521;-62
2023/10/09 03:26:57;;;;;;;15.73;10.52;;;;;;;;;;10334943;28;20064;-62
2023/10/09 03:32:00;;;;;;;14.48;11.10;;;;;;;;;;10334256;28;20478;-62
2023/10/09 03:37:20;;;;;;;16.85;11.25;;;;;;;;;;10334603;28;20030;-62
2023/10/09 03:42:22;;;;;;;16.77;10.70;;;;;;;;;;10334473;28;20038;-62
2023/10/09 03:47:23;;;;;;;17.42;11.75;;;;;;;;;;10334438;28;20030;-62
2023/10/09 03:52:27;;;;;;;21.23;11.23;;;;;;;;;;10333900;28;20037;-61
2023/10/09 03:57:27;;;;;;;18.95;10.90;;;;;;;;;;10333227;28;20113;-61
2023/10/09 04:02:28;;;;;;;15.75;10.75;;;;;;;;;;10332976;28;20031;-61
2023/10/09 04:07:31;;;;;;;17.00;11.63;;;;;;;;;;10333505;28;20030;-59
2023/10/09 04:12:33;;;;;;;19.92;10.80;;;;;;;;;;10332676;28;20085;-61
2023/10/09 04:17:34;;;;;;;18.50;11.48;;;;;;;;;;10332473;28;20037;-60
2023/10/09 04:22:42;;;;;;;15.43;11.15;;;;;;;;;;10332923;28;20042;-60
2023/10/09 04:27:44;;;;;;;15.63;10.32;;;;;;;;;;10332178;28;20391;-60
2023/10/09 04:32:45;;;;;;;16.85;10.82;;;;;;;;;;10331947;28;20469;-60
2023/10/09 04:37:52;;;;;;;16.15;11.48;;;;;;;;;;10332294;28;20073;-60
2023/10/09 04:42:58;;;;;;;17.67;11.18;;;;;;;;;;10331449;28;20390;-61
2023/10/09 04:48:06;;;;;;;18.52;11.32;;;;;;;;;;10331503;28;20117;-61
2023/10/09 04:58:23;;;;;;;18.98;12.80;;;;;;;;;;10331757;28;20038;-60
2023/10/09 05:03:25;;;;;;;26.02;13.07;;;;;;;;;;10331023;28;20089;-64
2023/10/09 05:18:41;;;;;;;16.42;11.70;;;;;;;;;;10331260;28;20105;-61
2023/10/09 05:29:19;;;;;;;19.08;11.05;;;;;;;;;;10314724;28;20544;-58
2023/10/09 05:34:21;;;;;;;15.48;10.20;;;;;;;;;;10329298;28;20066;-59
2023/10/09 05:39:40;;;;;;;15.20;10.20;;;;;;;;;;10329190;28;20470;-59
2023/10/09 05:46:06;;;;;;;15.90;9.95;;;;;;;;;;10329244;28;20638;-58
2023/10/09 06:06:07;;;;;;;13.05;9.05;;;;;;;;;;10569485;28;20024;-59
2023/10/09 06:27:12;;;;;;;10.23;7.28;;;;;;;;;;10569407;28;20032;-61
2023/10/09 06:42:33;;;;;;;10.85;7.30;;;;;;;;;;10568249;28;20378;-60
2023/10/09 06:47:41;;;;;;;9.63;7.25;;;;;;;;;;10567385;28;20578;-63
2023/10/09 06:58:15;;;;;;;8.23;6.57;;;;;;;;;;10535423;28;20086;-59
2023/10/09 07:03:19;;;;;;;11.37;6.40;;;;;;;;;;10539319;28;20345;-59
2023/10/09 07:08:32;;;;;;;9.27;6.60;;;;;;;;;;10531027;28;20027;-62
2023/10/09 07:13:37;;;;;;;9.60;6.63;;;;;;;;;;10537285;28;20020;-59
2023/10/09 07:18:49;;;;;;;19.90;6.63;;;;;;;;;;10537967;28;20032;-59
2023/10/09 07:23:55;;;;;;;7.18;6.07;;;;;;;;;;10536897;28;20119;-60
2023/10/09 07:29:01;;;;;;;13.75;6.10;;;;;;;;;;10526852;28;20280;-62
2023/10/09 07:34:07;;;;;;;9.70;6.72;;;;;;;;;;10536402;28;20040;-60
2023/10/09 07:39:15;;;;;;;8.70;5.82;;;;;;;;;;10536858;28;20108;-64
2023/10/09 07:44:36;;;;;;;11.25;6.43;;;;;;;;;;10532818;28;20076;-63
2023/10/09 07:49:37;;;;;;;12.45;6.80;;;;;;;;;;10535003;28;20487;-64
2023/10/09 07:54:49;;;;;;;8.10;6.07;;;;;;;;;;10536659;28;20035;-63
2023/10/09 08:00:00;;;;;;;9.48;6.90;;;;;;;;;;10536654;28;20027;-64
2023/10/09 08:05:19;;;;;;;15.40;7.22;;;;;;;;;;10536089;28;20464;-64
2023/10/09 08:20:25;;;;;;;9.60;6.75;;;;;;;;;;10535468;28;20386;-62
2023/10/09 08:25:26;;;;;;;11.45;6.80;;;;;;;;;;10535474;28;20024;-63
2023/10/09 08:35:47;;;;;;;15.10;6.93;;;;;;;;;;10534179;28;20048;-62
2023/10/09 08:40:47;;;;;;;9.13;6.53;;;;;;;;;;10533415;28;20043;-62
2023/10/09 08:46:02;;;;;;;12.25;6.90;;;;;;;;;;10533956;28;20383;-62
2023/10/09 08:51:06;;;;;;;10.55;6.43;;;;;;;;;;10533796;28;20032;-62
2023/10/09 08:56:07;;;;;;;9.35;6.22;;;;;;;;;;10533566;28;20594;-62
2023/10/09 09:01:08;;;;;;;8.95;6.20;;;;;;;;;;10531962;28;20024;-62
2023/10/09 09:06:08;;;;;;;10.00;6.57;;;;;;;;;;10533991;28;20039;-62
2023/10/09 09:11:17;;;;;;;7.63;6.05;;;;;;;;;;10533083;28;20028;-63
2023/10/09 09:16:29;;;;;;;9.00;5.45;;;;;;;;;;10533797;28;20020;-63
2023/10/09 09:21:45;;;;;;;7.53;5.55;;;;;;;;;;10533503;28;20028;-63
2023/10/09 09:26:46;;;;;;;11.18;6.25;;;;;;;;;;10533332;28;20036;-63
2023/10/09 09:31:54;;;;;;;10.65;6.57;;;;;;;;;;10532762;28;20032;-62
2023/10/09 09:36:57;;;;;;;14.13;6.50;;;;;;;;;;10531715;28;20431;-63
2023/10/09 09:47:35;;;;;;;18.55;6.38;;;;;;;;;;10514946;28;20134;-62
2023/10/09 09:52:38;;;;;;;9.02;5.97;;;;;;;;;;10531884;28;20032;-62
2023/10/09 09:57:40;;;;;;;8.38;5.55;;;;;;;;;;10531935;28;20241;-62
2023/10/09 10:02:43;;;;;;;10.27;6.30;;;;;;;;;;10531501;28;20051;-62
2023/10/09 10:07:43;;;;;;;8.52;6.53;;;;;;;;;;10531318;28;20119;-60
2023/10/09 10:13:00;;;;;;;18.70;5.68;;;;;;;;;;10531665;28;20423;-61
2023/10/09 10:18:00;;;;;;;9.85;5.72;;;;;;;;;;10532119;28;20487;-61
2023/10/09 10:23:25;;;;;;;9.23;6.28;;;;;;;;;;10532253;28;20279;-61
2023/10/09 10:28:38;;;;;;;10.13;6.05;;;;;;;;;;10532368;28;20043;-61
2023/10/09 10:34:11;;;;;;;9.13;5.93;;;;;;;;;;10533589;28;20028;-64
2023/10/09 10:39:19;;;;;;;8.07;6.22;;;;;;;;;;10515237;28;20048;-61
2023/10/09 10:44:42;;;;;;;11.30;6.60;;;;;;;;;;10539207;28;20042;-61
2023/10/09 10:49:44;;;;;;;9.45;6.10;;;;;;;;;;10538016;28;20234;-62
2023/10/09 10:54:45;;;;;;;7.32;5.60;;;;;;;;;;10537920;28;20112;-63
2023/10/09 10:59:49;;;;;;;6.80;5.82;;;;;;;;;;10537293;28;20178;-63
2023/10/09 11:04:54;;;;;;;11.50;5.68;;;;;;;;;;10536913;28;20031;-61
2023/10/09 11:15:29;;;;;;;11.45;7.10;;;;;;;;;;10538323;28;20237;-63
2023/10/09 11:20:31;;;;;;;10.38;6.97;;;;;;;;;;10537432;28;20032;-62
2023/10/09 11:25:33;;;;;;;10.35;6.45;;;;;;;;;;10537106;28;20024;-60
2023/10/09 11:30:34;;;;;;;8.88;6.43;;;;;;;;;;10535807;28;20028;-61
2023/10/09 11:35:35;;;;;;;9.85;6.70;;;;;;;;;;10537674;28;20418;-62
2023/10/09 11:45:55;;;;;;;10.40;7.25;;;;;;;;;;10537490;28;20535;-62
2023/10/09 11:51:13;;;;;;;12.95;7.50;;;;;;;;;;10535889;28;20507;-64
2023/10/09 11:56:16;;;;;;;13.30;7.47;;;;;;;;;;10535963;28;20065;-62
2023/10/09 12:01:20;;;;;;;19.55;8.13;;;;;;;;;;10534320;28;20028;-63
2023/10/09 12:06:32;;;;;;;11.20;7.80;;;;;;;;;;10535519;28;20043;-62
2023/10/09 12:11:32;;;;;;;15.75;8.20;;;;;;;;;;10534567;28;20217;-63
2023/10/09 12:16:33;;;;;;;13.73;7.95;;;;;;;;;;10534167;28;20603;-62
2023/10/09 12:21:35;;;;;;;12.50;8.27;;;;;;;;;;10534423;28;20468;-62
2023/10/09 12:26:38;;;;;;;14.18;8.10;;;;;;;;;;10535001;28;20028;-63
2023/10/09 12:31:38;;;;;;;13.68;9.18;;;;;;;;;;10534613;28;20154;-63
2023/10/09 12:36:39;;;;;;;13.93;7.95;;;;;;;;;;10533805;28;20098;-63
2023/10/09 12:41:41;;;;;;;12.25;7.80;;;;;;;;;;10534577;28;20375;-64
2023/10/09 12:46:47;;;;;;;13.73;8.32;;;;;;;;;;10533382;28;20055;-62
2023/10/09 12:51:48;;;;;;;12.10;7.75;;;;;;;;;;10534391;28;20075;-65
2023/10/09 12:56:49;;;;;;;12.95;8.48;;;;;;;;;;10532765;28;20020;-64
2023/10/09 13:01:57;;;;;;;10.88;7.38;;;;;;;;;;10533795;28;20485;-64
2023/10/09 13:07:02;;;;;;;14.18;8.30;;;;;;;;;;10533734;28;20042;-64
2023/10/09 13:12:03;;;;;;;12.45;7.75;;;;;;;;;;10532842;28;20532;-62
2023/10/09 13:17:09;;;;;;;13.27;8.18;;;;;;;;;;10534281;28;20272;-64
2023/10/09 13:22:12;;;;;;;13.10;7.32;;;;;;;;;;10533656;28;20036;-64
2023/10/09 13:27:18;;;;;;;14.82;7.95;;;;;;;;;;10532818;28;20023;-63
2023/10/09 13:32:20;;;;;;;9.68;7.20;;;;;;;;;;10532655;28;20483;-60
2023/10/09 13:37:22;;;;;;;13.50;7.53;;;;;;;;;;10532746;28;20024;-65
2023/10/09 13:42:25;;;;;;;12.43;7.72;;;;;;;;;;10532449;28;20028;-63
2023/10/09 13:47:31;;;;;;;10.18;7.15;;;;;;;;;;10532381;28;20415;-63
2023/10/09 13:52:32;;;;;;;11.98;7.47;;;;;;;;;;10532615;28;20020;-62
2023/10/09 13:57:32;;;;;;;14.00;7.30;;;;;;;;;;10532199;28;20372;-62
2023/10/09 14:02:33;;;;;;;16.50;8.27;;;;;;;;;;10532453;28;20099;-64
2023/10/09 14:07:34;;;;;;;11.82;7.55;;;;;;;;;;10531018;28;20360;-63
2023/10/09 14:12:39;;;;;;;14.02;7.70;;;;;;;;;;10539880;28;20494;-64
2023/10/09 14:17:42;;;;;;;19.33;7.93;;;;;;;;;;10541173;28;20020;-63
2023/10/09 14:22:42;;;;;;;11.18;8.20;;;;;;;;;;10538963;28;20476;-64
2023/10/09 14:27:44;;;;;;;12.23;8.27;;;;;;;;;;10539627;28;20040;-66
2023/10/09 14:32:51;;;;;;;9.68;7.63;;;;;;;;;;10539559;28;20020;-63
2023/10/09 14:37:53;;;;;;;9.75;7.43;;;;;;;;;;10540325;28;20053;-63
2023/10/09 14:42:54;;;;;;;14.13;7.68;;;;;;;;;;10539037;28;20113;-62
2023/10/09 14:47:54;;;;;;;13.43;7.57;;;;;;;;;;10538507;28;20040;-63
2023/10/09 14:52:55;;;;;;;22.30;8.65;;;;;;;;;;10539246;28;20032;-65
2023/10/09 14:57:55;;;;;;;12.18;8.32;;;;;;;;;;10538612;28;20028;-64
2023/10/09 15:02:56;;;;;;;13.50;8.57;;;;;;;;;;10538486;28;20460;-65
2023/10/09 15:07:57;;;;;;;12.82;8.43;;;;;;;;;;10538005;28;20497;-66
2023/10/09 15:12:59;;;;;;;9.82;6.97;;;;;;;;;;10537746;28;20043;-66
2023/10/09 15:18:03;;;;;;;13.43;8.98;;;;;;;;;;10537748;28;20028;-64
2023/10/09 15:23:05;;;;;;;10.88;8.05;;;;;;;;;;10537261;28;20028;-65
2023/10/09 15:28:09;;;;;;;11.55;8.00;;;;;;;;;;10535910;28;20443;-65
2023/10/09 15:33:10;;;;;;;9.52;8.20;;;;;;;;;;10517861;28;20024;-64
2023/10/09 15:38:13;;;;;;;14.05;8.32;;;;;;;;;;10537029;28;20073;-65
2023/10/09 15:43:14;;;;;;;8.55;7.30;;;;;;;;;;10537307;28;20103;-64
2023/10/09 15:48:15;;;;;;;14.15;8.77;;;;;;;;;;10536060;28;20054;-64
2023/10/09 15:53:18;;;;;;;19.25;12.55;;;;;;;;;;10535135;28;20051;-66
2023/10/09 15:58:20;;;;;;;26.52;12.95;;;;;;;;;;10536190;28;20462;-65
2023/10/09 16:03:20;;;;;;;24.70;14.93;;;;;;;;;;10532547;28;20025;-65
2023/10/09 16:08:22;;;;;;;23.85;13.68;;;;;;;;;;10535091;28;20032;-65
2023/10/09 16:13:23;;;;;;;51.38;18.20;;;;;;;;;;10536236;28;20028;-65
2023/10/09 16:18:23;;;;;;;27.63;15.52;;;;;;;;;;10534898;28;20028;-65
2023/10/09 16:23:24;;;;;;;37.90;17.35;;;;;;;;;;10535225;28;20036;-64
2023/10/09 16:28:28;;;;;;;29.42;16.83;;;;;;;;;;10534909;28;20418;-65
2023/10/09 16:33:28;;;;;;;25.70;15.55;;;;;;;;;;10533087;28;20032;-62
2023/10/09 16:38:29;;;;;;;31.65;16.17;;;;;;;;;;10534893;28;20016;-61
2023/10/09 16:43:30;;;;;;;24.83;14.63;;;;;;;;;;10534845;28;20032;-61
2023/10/09 16:48:30;;;;;;;32.53;14.93;;;;;;;;;;10533577;28;20410;-62
2023/10/09 16:53:31;;;;;;;26.85;15.60;;;;;;;;;;10533979;28;20055;-63
2023/10/09 16:58:32;;;;;;;18.95;13.18;;;;;;;;;;10531184;28;20020;-62
2023/10/09 17:03:34;;;;;;;20.45;13.88;;;;;;;;;;10532859;28;20028;-63
2023/10/09 17:08:39;;;;;;;28.83;13.70;;;;;;;;;;10533737;28;20395;-62
2023/10/09 17:13:48;;;;;;;21.33;13.05;;;;;;;;;;10533165;28;20119;-63
2023/10/09 17:18:54;;;;;;;20.65;12.60;;;;;;;;;;10533502;28;20028;-61
2023/10/09 17:23:55;;;;;;;18.08;12.40;;;;;;;;;;10532673;28;20032;-63
2023/10/09 17:28:56;;;;;;;19.55;12.57;;;;;;;;;;10532898;28;20024;-62
2023/10/09 17:33:57;;;;;;;24.50;11.98;;;;;;;;;;10531916;28;20032;-62
2023/10/09 17:39:00;;;;;;;17.52;12.05;;;;;;;;;;10532282;28;20028;-63
2023/10/09 17:44:04;;;;;;;14.45;11.05;;;;;;;;;;10531736;28;20456;-63
2023/10/09 17:49:06;;;;;;;22.20;11.10;;;;;;;;;;10532056;28;20135;-62
2023/10/09 17:54:09;;;;;;;18.13;11.35;;;;;;;;;;10531659;28;20016;-64
2023/10/09 17:59:11;;;;;;;14.38;11.13;;;;;;;;;;10532304;28;20034;-64
2023/10/09 18:04:13;;;;;;;16.50;10.57;;;;;;;;;;10531361;28;20034;-63
2023/10/09 18:09:17;;;;;;;20.42;10.40;;;;;;;;;;10531181;28;20115;-62
2023/10/09 18:14:17;;;;;;;18.80;11.02;;;;;;;;;;10531025;28;20036;-64
2023/10/09 18:19:20;;;;;;;17.90;10.20;;;;;;;;;;10531671;28;20024;-64
2023/10/09 18:24:23;;;;;;;25.52;11.48;;;;;;;;;;10531622;28;20020;-64
2023/10/09 18:29:24;;;;;;;20.52;10.50;;;;;;;;;;10531633;28;20044;-64
2023/10/09 18:34:26;;;;;;;21.60;11.50;;;;;;;;;;10531798;28;20035;-62
2023/10/09 18:39:27;;;;;;;22.77;10.88;;;;;;;;;;10531500;28;20027;-64
2023/10/09 18:44:29;;;;;;;19.33;10.75;;;;;;;;;;10531178;28;20024;-64
2023/10/09 18:49:29;;;;;;;20.60;10.98;;;;;;;;;;10530703;28;20475;-64
2023/10/09 18:54:30;;;;;;;16.17;10.00;;;;;;;;;;10533564;28;20017;-63
2023/10/09 18:59:31;;;;;;;16.48;9.73;;;;;;;;;;10538595;28;20077;-64
2023/10/09 19:04:31;;;;;;;18.67;9.93;;;;;;;;;;10538467;28;20217;-64
2023/10/09 19:09:33;;;;;;;14.32;9.63;;;;;;;;;;10537974;28;20387;-64
2023/10/09 19:14:34;;;;;;;20.70;10.32;;;;;;;;;;10537114;28;20036;-64
2023/10/09 19:19:36;;;;;;;14.68;10.45;;;;;;;;;;10537799;28;20016;-61
2023/10/09 19:24:37;;;;;;;17.13;9.65;;;;;;;;;;10536659;28;20028;-64
2023/10/09 19:29:37;;;;;;;13.05;9.32;;;;;;;;;;10536973;28;20455;-64
2023/10/09 19:34:38;;;;;;;16.52;10.02;;;;;;;;;;10536628;28;20038;-64
2023/10/09 19:39:40;;;;;;;13.63;10.00;;;;;;;;;;10535041;28;20024;-64
2023/10/09 19:44:43;;;;;;;12.63;8.73;;;;;;;;;;10535764;28;20032;-63
2023/10/09 19:49:44;;;;;;;12.27;9.50;;;;;;;;;;10535721;28;20071;-61
2023/10/09 19:54:45;;;;;;;12.20;9.30;;;;;;;;;;10535939;28;20062;-63
2023/10/09 19:59:48;;;;;;;13.50;9.65;;;;;;;;;;10536023;28;20027;-63
2023/10/09 20:04:50;;;;;;;15.75;9.13;;;;;;;;;;10536803;28;20028;-64
2023/10/09 20:09:50;;;;;;;14.82;9.30;;;;;;;;;;10535895;28;20063;-63
2023/10/09 20:14:52;;;;;;;15.82;9.25;;;;;;;;;;10535764;28;20020;-64
2023/10/09 20:19:53;;;;;;;13.40;9.45;;;;;;;;;;10536053;28;20066;-63
2023/10/09 20:24:54;;;;;;;12.65;8.93;;;;;;;;;;10534437;28;20024;-62
2023/10/09 20:29:56;;;;;;;12.07;8.93;;;;;;;;;;10535375;28;20383;-60
2023/10/09 20:34:57;;;;;;;12.50;9.07;;;;;;;;;;10535844;28;20016;-61
2023/10/09 20:39:58;;;;;;;12.70;8.73;;;;;;;;;;10534011;28;20490;-63
2023/10/09 20:45:00;;;;;;;13.63;9.40;;;;;;;;;;10533596;28;20034;-63
2023/10/09 20:50:01;;;;;;;13.65;9.27;;;;;;;;;;10534028;28;20118;-64
2023/10/09 20:55:01;;;;;;;14.18;8.48;;;;;;;;;;10531419;28;20486;-63
2023/10/09 21:00:03;;;;;;;13.90;8.32;;;;;;;;;;10533808;28;20351;-63
2023/10/09 21:05:04;;;;;;;12.18;8.38;;;;;;;;;;10534797;28;20038;-62
2023/10/09 21:10:06;;;;;;;13.70;8.48;;;;;;;;;;10533378;28;20036;-61
2023/10/09 21:15:09;;;;;;;23.38;8.20;;;;;;;;;;10532902;28;20016;-61
2023/10/09 21:20:18;;;;;;;16.48;9.10;;;;;;;;;;10533547;28;20024;-62
2023/10/09 21:25:20;;;;;;;24.88;9.93;;;;;;;;;;10533225;28;20024;-64
2023/10/09 21:30:23;;;;;;;17.00;10.93;;;;;;;;;;10532848;28;20514;-62
2023/10/09 21:35:27;;;;;;;18.98;11.07;;;;;;;;;;10532575;28;20089;-62
2023/10/09 21:40:29;;;;;;;13.55;10.20;;;;;;;;;;10531439;28;20051;-62
2023/10/09 21:45:29;;;;;;;18.30;10.77;;;;;;;;;;10532211;28;20031;-63
2023/10/09 21:50:30;;;;;;;21.08;11.27;;;;;;;;;;10532067;28;20395;-62
2023/10/09 21:55:31;;;;;;;19.50;10.32;;;;;;;;;;10532459;28;20024;-62
2023/10/09 22:00:32;;;;;;;20.52;12.00;;;;;;;;;;10532772;28;20113;-62
2023/10/09 22:05:42;;;;;;;19.00;11.32;;;;;;;;;;10532329;28;20387;-62
2023/10/09 22:10:43;;;;;;;23.10;11.98;;;;;;;;;;10531947;28;20392;-62
2023/10/09 22:15:48;;;;;;;20.10;11.27;;;;;;;;;;10532135;28;20459;-62
2023/10/09 22:20:53;;;;;;;22.45;12.05;;;;;;;;;;10531901;28;20401;-62
2023/10/09 22:26:03;;;;;;;19.23;11.35;;;;;;;;;;10533065;28;20021;-62
2023/10/09 22:31:05;;;;;;;18.38;11.48;;;;;;;;;;10536337;28;20031;-62
2023/10/09 22:36:10;;;;;;;17.92;11.00;;;;;;;;;;10540282;28;20078;-62
2023/10/09 22:41:10;;;;;;;19.55;11.77;;;;;;;;;;10539253;28;20076;-61
2023/10/09 22:46:13;;;;;;;18.73;11.45;;;;;;;;;;10538820;28;20369;-62
2023/10/09 22:51:13;;;;;;;20.90;12.77;;;;;;;;;;10539486;28;20448;-62
2023/10/09 22:56:16;;;;;;;17.70;11.68;;;;;;;;;;10539023;28;20028;-61
2023/10/09 23:01:28;;;;;;;15.70;11.35;;;;;;;;;;10538604;28;20024;-63
2023/10/09 23:06:33;;;;;;;19.85;11.95;;;;;;;;;;10539016;28;20024;-62
2023/10/09 23:11:34;;;;;;;22.52;11.68;;;;;;;;;;10538297;28;20387;-63
2023/10/09 23:16:48;;;;;;;18.50;12.50;;;;;;;;;;10538156;28;20035;-62
2023/10/09 23:32:52;;;;;;;19.73;11.32;;;;;;;;;;10489581;28;20070;-61
2023/10/09 23:43:14;;;;;;;20.70;11.18;;;;;;;;;;10488955;28;20555;-61
2023/10/09 23:48:14;;;;;;;21.48;12.18;;;;;;;;;;10488644;28;20075;-62
2023/10/09 23:53:16;;;;;;;17.05;12.23;;;;;;;;;;10488965;28;20048;-63
2023/10/09 23:58:18;;;;;;;19.00;10.73;;;;;;;;;;10525352;28;20407;-63
